sensor_id;sensor_type;location;lat;lon;timestamp;P1;durP1;ratioP1;P2;durP2;ratioP2
68353;SDS011;55274;43.060;25.618;2023-12-28T00:01:19;23.30;;;9.65;;
68353;SDS011;55274;43.060;25.618;2023-12-28T00:03:47;25.60;;;8.52;;
68353;SDS011;55274;43.060;25.618;2023-12-28T00:06:12;24.13;;;9.20;;
68353;SDS011;55274;43.060;25.618;2023-12-28T00:08:38;19.65;;;8.77;;
68353;SDS011;55274;43.060;25.618;2023-12-28T00:11:04;24.65;;;9.70;;
68353;SDS011;55274;43.060;25.618;2023-12-28T00:13:30;18.52;;;8.45;;
68353;SDS011;55274;43.060;25.618;2023-12-28T00:15:56;24.35;;;8.40;;
68353;SDS011;55274;43.060;25.618;2023-12-28T00:18:22;32.88;;;8.70;;
68353;SDS011;55274;43.060;25.618;2023-12-28T00:20:47;19.50;;;8.70;;
68353;SDS011;55274;43.060;25.618;2023-12-28T00:23:14;20.25;;;8.70;;
68353;SDS011;55274;43.060;25.618;2023-12-28T00:25:40;22.50;;;8.43;;
68353;SDS011;55274;43.060;25.618;2023-12-28T00:28:06;23.50;;;8.68;;
68353;SDS011;55274;43.060;25.618;2023-12-28T00:30:32;19.33;;;8.85;;
68353;SDS011;55274;43.060;25.618;2023-12-28T00:32:58;22.88;;;7.95;;
68353;SDS011;55274;43.060;25.618;2023-12-28T00:35:24;20.40;;;8.55;;
68353;SDS011;55274;43.060;25.618;2023-12-28T00:37:49;20.58;;;8.23;;
68353;SDS011;55274;43.060;25.618;2023-12-28T00:40:15;19.83;;;7.28;;
68353;SDS011;55274;43.060;25.618;2023-12-28T00:42:41;16.73;;;7.45;;
68353;SDS011;55274;43.060;25.618;2023-12-28T00:45:07;19.58;;;8.57;;
68353;SDS011;55274;43.060;25.618;2023-12-28T00:47:34;17.90;;;7.68;;
68353;SDS011;55274;43.060;25.618;2023-12-28T00:50:00;16.70;;;8.02;;
68353;SDS011;55274;43.060;25.618;2023-12-28T00:52:26;16.50;;;7.25;;
68353;SDS011;55274;43.060;25.618;2023-12-28T00:54:52;19.42;;;7.47;;
68353;SDS011;55274;43.060;25.618;2023-12-28T00:57:18;15.30;;;7.53;;
68353;SDS011;55274;43.060;25.618;2023-12-28T00:59:43;17.30;;;6.90;;
68353;SDS011;55274;43.060;25.618;2023-12-28T01:02:09;14.98;;;6.85;;
68353;SDS011;55274;43.060;25.618;2023-12-28T01:04:35;17.20;;;7.57;;
68353;SDS011;55274;43.060;25.618;2023-12-28T01:07:01;48.75;;;45.72;;
68353;SDS011;55274;43.060;25.618;2023-12-28T01:09:30;16.67;;;7.55;;
68353;SDS011;55274;43.060;25.618;2023-12-28T01:11:57;17.55;;;7.45;;
68353;SDS011;55274;43.060;25.618;2023-12-28T01:14:23;17.25;;;7.40;;
68353;SDS011;55274;43.060;25.618;2023-12-28T01:16:49;18.25;;;8.48;;
68353;SDS011;55274;43.060;25.618;2023-12-28T01:19:16;22.48;;;7.82;;
68353;SDS011;55274;43.060;25.618;2023-12-28T01:21:41;17.48;;;7.30;;
68353;SDS011;55274;43.060;25.618;2023-12-28T01:24:07;18.35;;;7.65;;
68353;SDS011;55274;43.060;25.618;2023-12-28T01:26:33;16.75;;;7.10;;
68353;SDS011;55274;43.060;25.618;2023-12-28T01:28:59;13.13;;;6.57;;
68353;SDS011;55274;43.060;25.618;2023-12-28T01:31:28;19.63;;;7.20;;
68353;SDS011;55274;43.060;25.618;2023-12-28T01:33:54;16.42;;;6.50;;
68353;SDS011;55274;43.060;25.618;2023-12-28T01:36:20;19.80;;;7.28;;
68353;SDS011;55274;43.060;25.618;2023-12-28T01:38:47;13.13;;;5.57;;
68353;SDS011;55274;43.060;25.618;2023-12-28T01:41:13;16.65;;;6.38;;
68353;SDS011;55274;43.060;25.618;2023-12-28T01:43:40;13.40;;;6.57;;
68353;SDS011;55274;43.060;25.618;2023-12-28T01:46:07;16.85;;;6.88;;
68353;SDS011;55274;43.060;25.618;2023-12-28T01:48:37;17.67;;;7.22;;
68353;SDS011;55274;43.060;25.618;2023-12-28T01:51:03;16.23;;;7.55;;
68353;SDS011;55274;43.060;25.618;2023-12-28T01:53:29;19.65;;;7.70;;
68353;SDS011;55274;43.060;25.618;2023-12-28T01:55:55;26.85;;;7.63;;
68353;SDS011;55274;43.060;25.618;2023-12-28T01:58:21;14.43;;;6.88;;
68353;SDS011;55274;43.060;25.618;2023-12-28T02:00:49;23.30;;;6.65;;
68353;SDS011;55274;43.060;25.618;2023-12-28T02:03:15;17.10;;;7.28;;
68353;SDS011;55274;43.060;25.618;2023-12-28T02:05:41;16.73;;;6.40;;
68353;SDS011;55274;43.060;25.618;2023-12-28T02:08:07;16.25;;;7.00;;
68353;SDS011;55274;43.060;25.618;2023-12-28T02:10:33;17.80;;;6.78;;
68353;SDS011;55274;43.060;25.618;2023-12-28T02:12:58;12.93;;;6.20;;
68353;SDS011;55274;43.060;25.618;2023-12-28T02:15:24;15.23;;;6.57;;
68353;SDS011;55274;43.060;25.618;2023-12-28T02:20:29;13.63;;;6.07;;
68353;SDS011;55274;43.060;25.618;2023-12-28T02:22:55;17.55;;;6.35;;
68353;SDS011;55274;43.060;25.618;2023-12-28T02:25:22;21.35;;;6.70;;
68353;SDS011;55274;43.060;25.618;2023-12-28T02:27:48;16.88;;;6.18;;
68353;SDS011;55274;43.060;25.618;2023-12-28T02:30:18;14.70;;;5.95;;
68353;SDS011;55274;43.060;25.618;2023-12-28T02:38:09;14.95;;;6.32;;
68353;SDS011;55274;43.060;25.618;2023-12-28T02:40:37;15.00;;;6.18;;
68353;SDS011;55274;43.060;25.618;2023-12-28T02:43:07;14.57;;;6.10;;
68353;SDS011;55274;43.060;25.618;2023-12-28T02:45:34;14.65;;;6.00;;
68353;SDS011;55274;43.060;25.618;2023-12-28T02:48:00;15.18;;;6.57;;
68353;SDS011;55274;43.060;25.618;2023-12-28T02:50:27;15.35;;;5.85;;
68353;SDS011;55274;43.060;25.618;2023-12-28T02:52:55;15.23;;;6.03;;
68353;SDS011;55274;43.060;25.618;2023-12-28T02:55:21;17.23;;;6.32;;
68353;SDS011;55274;43.060;25.618;2023-12-28T02:57:49;21.13;;;6.90;;
68353;SDS011;55274;43.060;25.618;2023-12-28T03:00:24;12.40;;;6.28;;
68353;SDS011;55274;43.060;25.618;2023-12-28T03:02:50;11.45;;;5.38;;
68353;SDS011;55274;43.060;25.618;2023-12-28T03:05:16;13.02;;;5.95;;
68353;SDS011;55274;43.060;25.618;2023-12-28T03:07:42;13.48;;;6.07;;
68353;SDS011;55274;43.060;25.618;2023-12-28T03:10:08;15.05;;;6.35;;
68353;SDS011;55274;43.060;25.618;2023-12-28T03:12:36;13.07;;;6.03;;
68353;SDS011;55274;43.060;25.618;2023-12-28T03:15:02;15.32;;;6.68;;
68353;SDS011;55274;43.060;25.618;2023-12-28T03:17:29;13.45;;;6.38;;
68353;SDS011;55274;43.060;25.618;2023-12-28T03:19:56;14.02;;;6.65;;
68353;SDS011;55274;43.060;25.618;2023-12-28T03:22:23;32.33;;;7.32;;
68353;SDS011;55274;43.060;25.618;2023-12-28T03:24:49;16.10;;;6.70;;
68353;SDS011;55274;43.060;25.618;2023-12-28T03:27:15;18.15;;;7.90;;
68353;SDS011;55274;43.060;25.618;2023-12-28T03:29:41;26.17;;;9.90;;
68353;SDS011;55274;43.060;25.618;2023-12-28T03:32:08;30.00;;;8.35;;
68353;SDS011;55274;43.060;25.618;2023-12-28T03:34:33;22.75;;;8.10;;
68353;SDS011;55274;43.060;25.618;2023-12-28T03:37:00;24.17;;;8.15;;
68353;SDS011;55274;43.060;25.618;2023-12-28T03:39:26;14.73;;;6.40;;
68353;SDS011;55274;43.060;25.618;2023-12-28T03:41:51;19.92;;;7.00;;
68353;SDS011;55274;43.060;25.618;2023-12-28T03:44:18;22.35;;;7.57;;
68353;SDS011;55274;43.060;25.618;2023-12-28T03:46:47;37.00;;;7.97;;
68353;SDS011;55274;43.060;25.618;2023-12-28T03:49:20;23.58;;;8.52;;
68353;SDS011;55274;43.060;25.618;2023-12-28T03:51:47;33.75;;;8.68;;
68353;SDS011;55274;43.060;25.618;2023-12-28T03:54:17;21.88;;;7.35;;
68353;SDS011;55274;43.060;25.618;2023-12-28T03:56:45;16.25;;;7.05;;
68353;SDS011;55274;43.060;25.618;2023-12-28T03:59:11;17.00;;;6.68;;
68353;SDS011;55274;43.060;25.618;2023-12-28T04:01:37;17.13;;;7.18;;
68353;SDS011;55274;43.060;25.618;2023-12-28T04:04:03;18.45;;;6.90;;
68353;SDS011;55274;43.060;25.618;2023-12-28T04:06:29;14.10;;;6.22;;
68353;SDS011;55274;43.060;25.618;2023-12-28T04:08:54;18.80;;;6.70;;
68353;SDS011;55274;43.060;25.618;2023-12-28T04:11:21;17.52;;;6.72;;
68353;SDS011;55274;43.060;25.618;2023-12-28T04:13:46;31.75;;;7.07;;
68353;SDS011;55274;43.060;25.618;2023-12-28T04:16:13;48.08;;;8.35;;
68353;SDS011;55274;43.060;25.618;2023-12-28T04:18:39;23.83;;;6.82;;
68353;SDS011;55274;43.060;25.618;2023-12-28T04:21:08;21.33;;;6.78;;
68353;SDS011;55274;43.060;25.618;2023-12-28T04:23:35;19.42;;;7.13;;
68353;SDS011;55274;43.060;25.618;2023-12-28T04:26:02;20.75;;;7.63;;
68353;SDS011;55274;43.060;25.618;2023-12-28T04:28:28;10.98;;;6.22;;
68353;SDS011;55274;43.060;25.618;2023-12-28T04:30:53;15.90;;;6.38;;
68353;SDS011;55274;43.060;25.618;2023-12-28T04:33:19;16.52;;;6.57;;
68353;SDS011;55274;43.060;25.618;2023-12-28T04:35:45;17.02;;;6.55;;
68353;SDS011;55274;43.060;25.618;2023-12-28T04:38:12;17.92;;;6.80;;
68353;SDS011;55274;43.060;25.618;2023-12-28T04:40:38;14.70;;;6.45;;
68353;SDS011;55274;43.060;25.618;2023-12-28T04:43:03;20.00;;;7.03;;
68353;SDS011;55274;43.060;25.618;2023-12-28T04:45:29;18.92;;;6.25;;
68353;SDS011;55274;43.060;25.618;2023-12-28T04:47:55;18.77;;;7.57;;
68353;SDS011;55274;43.060;25.618;2023-12-28T04:50:21;34.25;;;8.35;;
68353;SDS011;55274;43.060;25.618;2023-12-28T04:52:46;27.80;;;7.35;;
68353;SDS011;55274;43.060;25.618;2023-12-28T04:55:12;20.90;;;7.30;;
68353;SDS011;55274;43.060;25.618;2023-12-28T04:57:40;18.98;;;6.85;;
68353;SDS011;55274;43.060;25.618;2023-12-28T05:00:06;22.55;;;7.35;;
68353;SDS011;55274;43.060;25.618;2023-12-28T05:02:33;18.80;;;7.38;;
68353;SDS011;55274;43.060;25.618;2023-12-28T05:04:59;35.38;;;8.50;;
68353;SDS011;55274;43.060;25.618;2023-12-28T05:07:25;19.02;;;7.28;;
68353;SDS011;55274;43.060;25.618;2023-12-28T05:09:51;17.52;;;7.65;;
68353;SDS011;55274;43.060;25.618;2023-12-28T05:12:17;43.88;;;8.63;;
68353;SDS011;55274;43.060;25.618;2023-12-28T05:14:42;22.15;;;7.72;;
68353;SDS011;55274;43.060;25.618;2023-12-28T05:17:08;21.90;;;8.63;;
68353;SDS011;55274;43.060;25.618;2023-12-28T05:19:34;27.42;;;8.40;;
68353;SDS011;55274;43.060;25.618;2023-12-28T05:22:00;20.50;;;8.07;;
68353;SDS011;55274;43.060;25.618;2023-12-28T05:24:29;19.27;;;8.77;;
68353;SDS011;55274;43.060;25.618;2023-12-28T05:26:55;25.92;;;9.75;;
68353;SDS011;55274;43.060;25.618;2023-12-28T05:29:20;39.28;;;8.98;;
68353;SDS011;55274;43.060;25.618;2023-12-28T05:31:46;21.45;;;9.43;;
68353;SDS011;55274;43.060;25.618;2023-12-28T05:34:12;26.83;;;8.75;;
68353;SDS011;55274;43.060;25.618;2023-12-28T05:36:38;23.48;;;9.20;;
68353;SDS011;55274;43.060;25.618;2023-12-28T05:39:06;25.98;;;8.57;;
68353;SDS011;55274;43.060;25.618;2023-12-28T05:41:34;36.17;;;11.80;;
68353;SDS011;55274;43.060;25.618;2023-12-28T05:44:00;20.40;;;8.73;;
68353;SDS011;55274;43.060;25.618;2023-12-28T05:46:26;18.55;;;8.77;;
68353;SDS011;55274;43.060;25.618;2023-12-28T05:48:52;31.40;;;8.77;;
68353;SDS011;55274;43.060;25.618;2023-12-28T05:51:18;41.63;;;8.88;;
68353;SDS011;55274;43.060;25.618;2023-12-28T05:53:43;37.25;;;9.60;;
68353;SDS011;55274;43.060;25.618;2023-12-28T05:56:09;38.72;;;9.48;;
68353;SDS011;55274;43.060;25.618;2023-12-28T05:58:35;18.80;;;8.93;;
68353;SDS011;55274;43.060;25.618;2023-12-28T06:01:02;27.13;;;9.10;;
68353;SDS011;55274;43.060;25.618;2023-12-28T06:03:30;41.67;;;11.63;;
68353;SDS011;55274;43.060;25.618;2023-12-28T06:05:56;30.98;;;10.38;;
68353;SDS011;55274;43.060;25.618;2023-12-28T06:08:22;36.25;;;11.70;;
68353;SDS011;55274;43.060;25.618;2023-12-28T06:10:48;47.22;;;14.45;;
68353;SDS011;55274;43.060;25.618;2023-12-28T06:13:14;47.53;;;15.70;;
68353;SDS011;55274;43.060;25.618;2023-12-28T06:15:40;36.60;;;15.70;;
68353;SDS011;55274;43.060;25.618;2023-12-28T06:18:06;49.38;;;14.95;;
68353;SDS011;55274;43.060;25.618;2023-12-28T06:20:32;46.42;;;13.35;;
68353;SDS011;55274;43.060;25.618;2023-12-28T06:22:58;62.20;;;13.93;;
68353;SDS011;55274;43.060;25.618;2023-12-28T06:25:23;44.15;;;11.50;;
68353;SDS011;55274;43.060;25.618;2023-12-28T06:27:49;28.42;;;9.55;;
68353;SDS011;55274;43.060;25.618;2023-12-28T06:30:15;30.30;;;10.80;;
68353;SDS011;55274;43.060;25.618;2023-12-28T06:32:41;24.63;;;10.80;;
68353;SDS011;55274;43.060;25.618;2023-12-28T06:35:07;29.20;;;11.73;;
68353;SDS011;55274;43.060;25.618;2023-12-28T06:37:33;30.48;;;12.10;;
68353;SDS011;55274;43.060;25.618;2023-12-28T06:39:59;35.50;;;11.68;;
68353;SDS011;55274;43.060;25.618;2023-12-28T06:42:25;36.10;;;11.85;;
68353;SDS011;55274;43.060;25.618;2023-12-28T06:44:51;29.52;;;11.00;;
68353;SDS011;55274;43.060;25.618;2023-12-28T06:47:16;31.33;;;11.25;;
68353;SDS011;55274;43.060;25.618;2023-12-28T06:49:42;29.95;;;12.30;;
68353;SDS011;55274;43.060;25.618;2023-12-28T06:52:08;43.35;;;12.98;;
68353;SDS011;55274;43.060;25.618;2023-12-28T06:54:33;32.42;;;12.82;;
68353;SDS011;55274;43.060;25.618;2023-12-28T06:56:59;37.97;;;13.18;;
68353;SDS011;55274;43.060;25.618;2023-12-28T06:59:25;29.98;;;12.48;;
68353;SDS011;55274;43.060;25.618;2023-12-28T07:01:51;42.65;;;13.77;;
68353;SDS011;55274;43.060;25.618;2023-12-28T07:04:17;41.13;;;12.95;;
68353;SDS011;55274;43.060;25.618;2023-12-28T07:06:42;38.80;;;13.93;;
68353;SDS011;55274;43.060;25.618;2023-12-28T07:09:08;28.63;;;13.60;;
68353;SDS011;55274;43.060;25.618;2023-12-28T07:11:34;34.90;;;14.30;;
68353;SDS011;55274;43.060;25.618;2023-12-28T07:14:00;47.88;;;16.60;;
68353;SDS011;55274;43.060;25.618;2023-12-28T07:16:25;65.22;;;20.45;;
68353;SDS011;55274;43.060;25.618;2023-12-28T07:18:54;49.65;;;18.42;;
68353;SDS011;55274;43.060;25.618;2023-12-28T07:21:19;50.92;;;19.42;;
68353;SDS011;55274;43.060;25.618;2023-12-28T07:23:45;47.50;;;18.35;;
68353;SDS011;55274;43.060;25.618;2023-12-28T07:26:14;46.72;;;19.98;;
68353;SDS011;55274;43.060;25.618;2023-12-28T07:28:41;48.78;;;19.52;;
68353;SDS011;55274;43.060;25.618;2023-12-28T07:31:08;48.85;;;20.58;;
68353;SDS011;55274;43.060;25.618;2023-12-28T07:33:34;47.10;;;20.80;;
68353;SDS011;55274;43.060;25.618;2023-12-28T07:36:00;44.08;;;20.30;;
68353;SDS011;55274;43.060;25.618;2023-12-28T07:38:27;50.28;;;19.40;;
68353;SDS011;55274;43.060;25.618;2023-12-28T07:40:53;45.83;;;19.35;;
68353;SDS011;55274;43.060;25.618;2023-12-28T07:43:19;39.15;;;16.70;;
68353;SDS011;55274;43.060;25.618;2023-12-28T07:45:45;22.08;;;10.63;;
68353;SDS011;55274;43.060;25.618;2023-12-28T07:48:11;26.83;;;12.07;;
68353;SDS011;55274;43.060;25.618;2023-12-28T07:50:36;46.28;;;14.02;;
68353;SDS011;55274;43.060;25.618;2023-12-28T07:53:02;40.78;;;15.75;;
68353;SDS011;55274;43.060;25.618;2023-12-28T07:55:28;38.03;;;15.02;;
68353;SDS011;55274;43.060;25.618;2023-12-28T07:57:54;27.30;;;12.70;;
68353;SDS011;55274;43.060;25.618;2023-12-28T08:00:20;26.73;;;10.43;;
68353;SDS011;55274;43.060;25.618;2023-12-28T08:02:45;23.50;;;10.48;;
68353;SDS011;55274;43.060;25.618;2023-12-28T08:05:11;25.73;;;11.25;;
68353;SDS011;55274;43.060;25.618;2023-12-28T08:07:39;28.00;;;12.43;;
68353;SDS011;55274;43.060;25.618;2023-12-28T08:10:05;25.00;;;10.57;;
68353;SDS011;55274;43.060;25.618;2023-12-28T08:12:31;37.03;;;14.98;;
68353;SDS011;55274;43.060;25.618;2023-12-28T08:14:58;33.92;;;13.98;;
68353;SDS011;55274;43.060;25.618;2023-12-28T08:17:25;31.33;;;15.02;;
68353;SDS011;55274;43.060;25.618;2023-12-28T08:19:50;32.53;;;13.45;;
68353;SDS011;55274;43.060;25.618;2023-12-28T08:22:16;27.30;;;12.43;;
68353;SDS011;55274;43.060;25.618;2023-12-28T08:24:42;30.48;;;13.25;;
68353;SDS011;55274;43.060;25.618;2023-12-28T08:27:08;35.80;;;13.88;;
68353;SDS011;55274;43.060;25.618;2023-12-28T08:29:34;34.92;;;15.18;;
68353;SDS011;55274;43.060;25.618;2023-12-28T08:31:59;44.25;;;16.60;;
68353;SDS011;55274;43.060;25.618;2023-12-28T08:34:25;35.45;;;15.05;;
68353;SDS011;55274;43.060;25.618;2023-12-28T08:36:53;39.15;;;17.05;;
68353;SDS011;55274;43.060;25.618;2023-12-28T08:39:18;36.70;;;15.65;;
68353;SDS011;55274;43.060;25.618;2023-12-28T08:41:44;31.98;;;16.08;;
68353;SDS011;55274;43.060;25.618;2023-12-28T08:44:10;42.00;;;16.98;;
68353;SDS011;55274;43.060;25.618;2023-12-28T08:46:35;57.00;;;24.25;;
68353;SDS011;55274;43.060;25.618;2023-12-28T08:49:01;54.28;;;24.20;;
68353;SDS011;55274;43.060;25.618;2023-12-28T08:51:27;69.30;;;25.88;;
68353;SDS011;55274;43.060;25.618;2023-12-28T08:53:53;66.65;;;26.23;;
68353;SDS011;55274;43.060;25.618;2023-12-28T08:56:19;58.17;;;25.42;;
68353;SDS011;55274;43.060;25.618;2023-12-28T08:58:46;48.20;;;22.02;;
68353;SDS011;55274;43.060;25.618;2023-12-28T09:01:19;38.45;;;16.38;;
68353;SDS011;55274;43.060;25.618;2023-12-28T09:03:50;32.22;;;14.35;;
68353;SDS011;55274;43.060;25.618;2023-12-28T09:06:17;25.15;;;10.43;;
68353;SDS011;55274;43.060;25.618;2023-12-28T09:08:43;54.00;;;16.13;;
68353;SDS011;55274;43.060;25.618;2023-12-28T09:11:12;32.22;;;13.35;;
68353;SDS011;55274;43.060;25.618;2023-12-28T09:13:39;31.92;;;14.52;;
68353;SDS011;55274;43.060;25.618;2023-12-28T09:16:05;37.53;;;15.65;;
68353;SDS011;55274;43.060;25.618;2023-12-28T09:18:32;36.83;;;14.55;;
68353;SDS011;55274;43.060;25.618;2023-12-28T09:20:59;36.08;;;15.25;;
68353;SDS011;55274;43.060;25.618;2023-12-28T09:23:25;35.05;;;16.02;;
68353;SDS011;55274;43.060;25.618;2023-12-28T09:25:50;35.65;;;13.20;;
68353;SDS011;55274;43.060;25.618;2023-12-28T09:28:16;24.25;;;12.70;;
68353;SDS011;55274;43.060;25.618;2023-12-28T09:30:42;23.45;;;11.82;;
68353;SDS011;55274;43.060;25.618;2023-12-28T09:33:07;19.70;;;10.10;;
68353;SDS011;55274;43.060;25.618;2023-12-28T09:35:33;20.80;;;9.82;;
68353;SDS011;55274;43.060;25.618;2023-12-28T09:38:01;19.30;;;9.93;;
68353;SDS011;55274;43.060;25.618;2023-12-28T09:40:27;29.92;;;15.90;;
68353;SDS011;55274;43.060;25.618;2023-12-28T09:45:33;15.23;;;5.55;;
68353;SDS011;55274;43.060;25.618;2023-12-28T09:47:59;23.55;;;6.53;;
68353;SDS011;55274;43.060;25.618;2023-12-28T09:50:25;25.65;;;6.10;;
68353;SDS011;55274;43.060;25.618;2023-12-28T09:52:52;17.58;;;5.47;;
68353;SDS011;55274;43.060;25.618;2023-12-28T09:55:19;13.48;;;6.03;;
68353;SDS011;55274;43.060;25.618;2023-12-28T09:57:45;14.88;;;6.22;;
68353;SDS011;55274;43.060;25.618;2023-12-28T10:00:12;25.10;;;7.63;;
68353;SDS011;55274;43.060;25.618;2023-12-28T10:02:43;28.70;;;8.00;;
68353;SDS011;55274;43.060;25.618;2023-12-28T10:05:16;30.58;;;9.88;;
68353;SDS011;55274;43.060;25.618;2023-12-28T10:07:46;35.83;;;12.48;;
68353;SDS011;55274;43.060;25.618;2023-12-28T10:10:13;39.88;;;17.95;;
68353;SDS011;55274;43.060;25.618;2023-12-28T10:12:39;100.43;;;25.10;;
68353;SDS011;55274;43.060;25.618;2023-12-28T10:15:05;57.28;;;23.08;;
68353;SDS011;55274;43.060;25.618;2023-12-28T10:17:34;46.83;;;21.73;;
68353;SDS011;55274;43.060;25.618;2023-12-28T10:20:01;37.08;;;18.98;;
68353;SDS011;55274;43.060;25.618;2023-12-28T10:22:33;22.70;;;13.10;;
68353;SDS011;55274;43.060;25.618;2023-12-28T10:24:59;75.55;;;12.60;;
68353;SDS011;55274;43.060;25.618;2023-12-28T10:27:26;32.25;;;10.75;;
68353;SDS011;55274;43.060;25.618;2023-12-28T10:29:53;20.95;;;9.02;;
68353;SDS011;55274;43.060;25.618;2023-12-28T10:32:20;14.10;;;6.15;;
68353;SDS011;55274;43.060;25.618;2023-12-28T10:34:48;16.23;;;6.80;;
68353;SDS011;55274;43.060;25.618;2023-12-28T10:37:13;18.60;;;6.50;;
68353;SDS011;55274;43.060;25.618;2023-12-28T10:39:40;14.88;;;5.25;;
68353;SDS011;55274;43.060;25.618;2023-12-28T10:42:11;24.17;;;8.05;;
68353;SDS011;55274;43.060;25.618;2023-12-28T10:44:42;18.92;;;5.68;;
68353;SDS011;55274;43.060;25.618;2023-12-28T10:47:12;14.43;;;3.72;;
68353;SDS011;55274;43.060;25.618;2023-12-28T10:49:44;9.02;;;3.35;;
68353;SDS011;55274;43.060;25.618;2023-12-28T10:52:13;57.40;;;6.07;;
68353;SDS011;55274;43.060;25.618;2023-12-28T10:54:45;31.20;;;4.78;;
68353;SDS011;55274;43.060;25.618;2023-12-28T11:02:24;41.92;;;5.93;;
68353;SDS011;55274;43.060;25.618;2023-12-28T11:04:54;15.38;;;5.00;;
68353;SDS011;55274;43.060;25.618;2023-12-28T11:07:21;10.93;;;3.88;;
68353;SDS011;55274;43.060;25.618;2023-12-28T11:09:47;7.47;;;4.22;;
68353;SDS011;55274;43.060;25.618;2023-12-28T11:12:15;42.58;;;5.40;;
68353;SDS011;55274;43.060;25.618;2023-12-28T11:14:45;15.32;;;4.30;;
68353;SDS011;55274;43.060;25.618;2023-12-28T11:17:13;9.55;;;4.03;;
68353;SDS011;55274;43.060;25.618;2023-12-28T11:19:41;59.25;;;8.88;;
68353;SDS011;55274;43.060;25.618;2023-12-28T11:22:08;29.70;;;5.75;;
68353;SDS011;55274;43.060;25.618;2023-12-28T11:24:34;59.05;;;8.70;;
68353;SDS011;55274;43.060;25.618;2023-12-28T11:27:01;39.97;;;5.38;;
68353;SDS011;55274;43.060;25.618;2023-12-28T11:29:29;12.27;;;4.50;;
68353;SDS011;55274;43.060;25.618;2023-12-28T11:34:24;22.70;;;5.28;;
68353;SDS011;55274;43.060;25.618;2023-12-28T11:36:51;13.57;;;4.78;;
68353;SDS011;55274;43.060;25.618;2023-12-28T11:39:29;19.70;;;5.60;;
68353;SDS011;55274;43.060;25.618;2023-12-28T11:42:03;14.02;;;5.15;;
68353;SDS011;55274;43.060;25.618;2023-12-28T11:44:30;13.02;;;4.88;;
68353;SDS011;55274;43.060;25.618;2023-12-28T11:46:57;29.23;;;4.90;;
68353;SDS011;55274;43.060;25.618;2023-12-28T11:49:26;16.42;;;4.80;;
68353;SDS011;55274;43.060;25.618;2023-12-28T11:51:57;9.32;;;4.15;;
68353;SDS011;55274;43.060;25.618;2023-12-28T11:54:25;17.08;;;4.53;;
68353;SDS011;55274;43.060;25.618;2023-12-28T11:56:51;14.82;;;4.18;;
68353;SDS011;55274;43.060;25.618;2023-12-28T11:59:18;10.50;;;3.88;;
68353;SDS011;55274;43.060;25.618;2023-12-28T12:01:54;12.40;;;4.47;;
68353;SDS011;55274;43.060;25.618;2023-12-28T12:04:20;11.02;;;4.60;;
68353;SDS011;55274;43.060;25.618;2023-12-28T12:06:47;13.68;;;4.00;;
68353;SDS011;55274;43.060;25.618;2023-12-28T12:09:13;17.52;;;4.55;;
68353;SDS011;55274;43.060;25.618;2023-12-28T12:11:39;10.32;;;3.85;;
68353;SDS011;55274;43.060;25.618;2023-12-28T12:14:12;10.75;;;3.95;;
68353;SDS011;55274;43.060;25.618;2023-12-28T12:16:38;10.27;;;3.53;;
68353;SDS011;55274;43.060;25.618;2023-12-28T12:19:04;37.25;;;5.30;;
68353;SDS011;55274;43.060;25.618;2023-12-28T12:21:32;24.63;;;4.65;;
68353;SDS011;55274;43.060;25.618;2023-12-28T12:24:01;45.22;;;6.95;;
68353;SDS011;55274;43.060;25.618;2023-12-28T12:26:27;24.17;;;4.65;;
68353;SDS011;55274;43.060;25.618;2023-12-28T12:28:56;23.13;;;3.40;;
68353;SDS011;55274;43.060;25.618;2023-12-28T12:31:22;9.60;;;2.60;;
68353;SDS011;55274;43.060;25.618;2023-12-28T12:33:49;14.02;;;3.58;;
68353;SDS011;55274;43.060;25.618;2023-12-28T12:36:15;6.53;;;3.28;;
68353;SDS011;55274;43.060;25.618;2023-12-28T12:38:42;7.05;;;3.20;;
68353;SDS011;55274;43.060;25.618;2023-12-28T12:41:10;28.00;;;4.05;;
68353;SDS011;55274;43.060;25.618;2023-12-28T12:43:37;11.98;;;4.00;;
68353;SDS011;55274;43.060;25.618;2023-12-28T12:46:03;10.73;;;3.55;;
68353;SDS011;55274;43.060;25.618;2023-12-28T12:48:29;6.93;;;3.10;;
68353;SDS011;55274;43.060;25.618;2023-12-28T12:50:55;11.27;;;3.10;;
68353;SDS011;55274;43.060;25.618;2023-12-28T12:53:21;12.05;;;2.75;;
68353;SDS011;55274;43.060;25.618;2023-12-28T12:55:47;9.30;;;3.40;;
68353;SDS011;55274;43.060;25.618;2023-12-28T12:58:13;12.00;;;3.33;;
68353;SDS011;55274;43.060;25.618;2023-12-28T13:00:42;5.47;;;3.05;;
68353;SDS011;55274;43.060;25.618;2023-12-28T13:03:10;8.40;;;3.80;;
68353;SDS011;55274;43.060;25.618;2023-12-28T13:05:36;12.63;;;3.47;;
68353;SDS011;55274;43.060;25.618;2023-12-28T13:08:03;12.27;;;3.15;;
68353;SDS011;55274;43.060;25.618;2023-12-28T13:10:30;16.42;;;4.32;;
68353;SDS011;55274;43.060;25.618;2023-12-28T13:12:56;23.83;;;4.43;;
68353;SDS011;55274;43.060;25.618;2023-12-28T13:15:24;13.82;;;3.35;;
68353;SDS011;55274;43.060;25.618;2023-12-28T13:17:50;9.75;;;3.42;;
68353;SDS011;55274;43.060;25.618;2023-12-28T13:20:16;9.65;;;3.47;;
68353;SDS011;55274;43.060;25.618;2023-12-28T13:22:41;9.70;;;3.58;;
68353;SDS011;55274;43.060;25.618;2023-12-28T13:25:07;23.60;;;4.30;;
68353;SDS011;55274;43.060;25.618;2023-12-28T13:27:33;17.95;;;4.38;;
68353;SDS011;55274;43.060;25.618;2023-12-28T13:30:01;20.92;;;4.85;;
68353;SDS011;55274;43.060;25.618;2023-12-28T13:32:27;29.33;;;6.30;;
68353;SDS011;55274;43.060;25.618;2023-12-28T13:34:53;26.30;;;5.28;;
68353;SDS011;55274;43.060;25.618;2023-12-28T13:37:20;17.25;;;4.95;;
68353;SDS011;55274;43.060;25.618;2023-12-28T13:39:48;45.30;;;6.32;;
68353;SDS011;55274;43.060;25.618;2023-12-28T13:42:14;29.67;;;5.07;;
68353;SDS011;55274;43.060;25.618;2023-12-28T13:44:40;39.78;;;5.72;;
68353;SDS011;55274;43.060;25.618;2023-12-28T13:47:06;46.17;;;7.57;;
68353;SDS011;55274;43.060;25.618;2023-12-28T13:49:32;36.72;;;7.47;;
68353;SDS011;55274;43.060;25.618;2023-12-28T13:51:58;41.17;;;7.40;;
68353;SDS011;55274;43.060;25.618;2023-12-28T13:54:24;30.90;;;5.40;;
68353;SDS011;55274;43.060;25.618;2023-12-28T13:56:49;18.40;;;5.75;;
68353;SDS011;55274;43.060;25.618;2023-12-28T13:59:21;26.17;;;5.65;;
68353;SDS011;55274;43.060;25.618;2023-12-28T14:01:47;33.53;;;5.32;;
68353;SDS011;55274;43.060;25.618;2023-12-28T14:04:19;19.90;;;5.80;;
68353;SDS011;55274;43.060;25.618;2023-12-28T14:06:50;19.33;;;5.93;;
68353;SDS011;55274;43.060;25.618;2023-12-28T14:09:16;27.38;;;5.35;;
68353;SDS011;55274;43.060;25.618;2023-12-28T14:11:46;23.73;;;6.13;;
68353;SDS011;55274;43.060;25.618;2023-12-28T14:14:12;16.55;;;4.43;;
68353;SDS011;55274;43.060;25.618;2023-12-28T14:16:38;52.45;;;7.28;;
68353;SDS011;55274;43.060;25.618;2023-12-28T14:19:10;35.58;;;6.68;;
68353;SDS011;55274;43.060;25.618;2023-12-28T14:21:41;55.53;;;7.03;;
68353;SDS011;55274;43.060;25.618;2023-12-28T14:24:07;64.18;;;7.22;;
68353;SDS011;55274;43.060;25.618;2023-12-28T14:26:33;61.53;;;6.72;;
68353;SDS011;55274;43.060;25.618;2023-12-28T14:29:05;54.50;;;7.28;;
68353;SDS011;55274;43.060;25.618;2023-12-28T14:31:31;68.47;;;7.38;;
68353;SDS011;55274;43.060;25.618;2023-12-28T14:33:58;34.15;;;5.65;;